createdAt,value
2022-10-18T00:02:11.041Z,102540.00
2022-10-18T00:04:37.740Z,102538.34
2022-10-18T00:07:04.489Z,102531.72
2022-10-18T00:09:31.156Z,102526.22
2022-10-18T00:11:57.903Z,102522.25
2022-10-18T00:14:24.360Z,102533.25
2022-10-18T00:16:50.815Z,102532.81
2022-10-18T00:19:17.323Z,102532.81
2022-10-18T00:24:11.193Z,102528.59
2022-10-18T00:26:37.692Z,102510.84
2022-10-18T00:29:05.878Z,102523.34
2022-10-18T00:31:37.443Z,102527.38
2022-10-18T00:34:07.343Z,102532.09
2022-10-18T00:36:34.842Z,102529.34
2022-10-18T00:39:03.212Z,102534.22
2022-10-18T00:41:31.829Z,102522.34
2022-10-18T00:44:26.121Z,102517.69
2022-10-18T00:46:56.904Z,102515.41
2022-10-18T00:49:29.768Z,102533.84
2022-10-18T00:51:58.176Z,102525.34
2022-10-18T00:54:25.397Z,102519.44
2022-10-18T00:56:51.973Z,102528.56
2022-10-18T00:59:19.037Z,102536.22
2022-10-18T01:01:46.316Z,102542.81
2022-10-18T01:04:15.181Z,102558.50
2022-10-18T01:07:05.964Z,102551.31
2022-10-18T01:09:40.797Z,102554.09
2022-10-18T01:12:19.608Z,102551.91
2022-10-18T01:15:09.287Z,102547.25
2022-10-18T01:17:43.708Z,102544.59
2022-10-18T01:20:28.960Z,102548.31
2022-10-18T01:23:33.132Z,102550.84
2022-10-18T01:26:24.391Z,102550.50
2022-10-18T01:29:34.652Z,102551.69
2022-10-18T01:32:09.977Z,102555.16
2022-10-18T01:34:38.975Z,102549.63
2022-10-18T01:37:11.221Z,102549.88
2022-10-18T01:39:40.819Z,102550.34
2022-10-18T01:42:12.102Z,102545.88
2022-10-18T01:44:40.787Z,102547.59
2022-10-18T01:47:10.795Z,102553.09
2022-10-18T01:49:37.323Z,102550.56
2022-10-18T01:52:03.890Z,102552.50
2022-10-18T01:54:42.992Z,102545.88
2022-10-18T01:57:14.592Z,102552.72
2022-10-18T01:59:43.956Z,102558.44
2022-10-18T02:02:28.602Z,102559.53
2022-10-18T02:05:13.515Z,102559.91
2022-10-18T02:08:22.944Z,102562.50
2022-10-18T02:10:56.712Z,102557.84
2022-10-18T02:13:29.724Z,102554.47
2022-10-18T02:16:03.432Z,102553.63
2022-10-18T02:18:38.835Z,102557.94
2022-10-18T02:21:10.638Z,102547.38
2022-10-18T02:23:38.360Z,102552.03
2022-10-18T02:26:05.971Z,102550.81
2022-10-18T02:28:32.515Z,102551.28
2022-10-18T02:31:36.037Z,102552.50
2022-10-18T02:34:22.480Z,102554.66
2022-10-18T02:37:00.141Z,102558.25
2022-10-18T02:39:34.968Z,102552.38
2022-10-18T02:42:06.774Z,102560.84
2022-10-18T02:44:34.310Z,102564.00
2022-10-18T02:47:01.483Z,102555.13
2022-10-18T02:49:28.354Z,102557.16
2022-10-18T02:51:54.856Z,102559.31
2022-10-18T02:54:21.372Z,102556.31
2022-10-18T02:56:47.845Z,102557.78
2022-10-18T02:59:14.552Z,102559.91
2022-10-18T03:01:41.102Z,102555.03
2022-10-18T03:04:07.590Z,102567.34
2022-10-18T03:06:34.131Z,102567.97
2022-10-18T03:09:03.746Z,102571.56
2022-10-18T03:11:30.239Z,102576.22
2022-10-18T03:13:56.726Z,102570.72
2022-10-18T03:16:23.468Z,102569.03
2022-10-18T03:18:50.005Z,102570.56
2022-10-18T03:21:16.469Z,102568.66
2022-10-18T03:23:43.587Z,102562.69
2022-10-18T03:26:10.162Z,102570.72
2022-10-18T03:28:36.704Z,102563.78
2022-10-18T03:31:04.720Z,102575.00
2022-10-18T03:33:32.538Z,102578.81
2022-10-18T03:35:59.110Z,102570.81
2022-10-18T03:38:25.641Z,102570.34
2022-10-18T03:40:52.112Z,102571.66
2022-10-18T03:43:18.724Z,102570.56
2022-10-18T03:45:45.667Z,102573.31
2022-10-18T03:48:12.163Z,102564.00
2022-10-18T03:50:38.734Z,102572.25
2022-10-18T03:53:05.233Z,102560.22
2022-10-18T03:55:31.869Z,102554.72
2022-10-18T03:57:58.352Z,102565.75
2022-10-18T04:00:24.863Z,102553.06
2022-10-18T04:02:54.923Z,102552.22
2022-10-18T04:05:27.978Z,102547.41
2022-10-18T04:07:54.940Z,102547.63
2022-10-18T04:10:21.704Z,102543.81
2022-10-18T04:12:48.150Z,102545.97
2022-10-18T04:15:14.704Z,102540.06
2022-10-18T04:17:41.159Z,102552.53
2022-10-18T04:20:08.183Z,102557.88
2022-10-18T04:22:34.642Z,102562.53
2022-10-18T04:25:01.320Z,102559.56
2022-10-18T04:27:27.832Z,102557.97
2022-10-18T04:29:54.296Z,102568.03
2022-10-18T04:32:20.813Z,102568.03
2022-10-18T04:34:47.262Z,102573.81
2022-10-18T04:37:13.795Z,102568.88
2022-10-18T04:39:40.299Z,102567.66
2022-10-18T04:42:06.757Z,102571.03
2022-10-18T04:44:34.295Z,102583.72
2022-10-18T04:47:00.771Z,102575.06
2022-10-18T04:49:27.240Z,102574.00
2022-10-18T04:51:53.707Z,102573.16
2022-10-18T04:54:21.850Z,102567.91
2022-10-18T04:56:50.456Z,102561.56
2022-10-18T04:59:17.036Z,102565.38
2022-10-18T05:01:43.575Z,102570.28
2022-10-18T05:04:10.120Z,102563.94
2022-10-18T05:06:36.591Z,102567.97
2022-10-18T05:09:03.172Z,102584.47
2022-10-18T05:11:29.700Z,102573.72
2022-10-18T05:13:56.249Z,102582.81
2022-10-18T05:16:22.729Z,102576.69
2022-10-18T05:18:49.269Z,102585.78
2022-10-18T05:21:16.720Z,102575.72
2022-10-18T05:23:43.210Z,102586.94
2022-10-18T05:26:09.698Z,102597.13
2022-10-18T05:28:40.518Z,102595.44
2022-10-18T05:31:09.893Z,102592.69
2022-10-18T05:33:36.400Z,102583.66
2022-10-18T05:36:04.010Z,102594.03
2022-10-18T05:38:30.924Z,102598.47
2022-10-18T05:40:58.897Z,102603.53
2022-10-18T05:43:29.117Z,102600.25
2022-10-18T05:45:55.678Z,102601.47
2022-10-18T05:48:22.241Z,102595.97
2022-10-18T05:50:48.735Z,102604.91
2022-10-18T05:53:35.145Z,102588.41
2022-10-18T05:56:02.689Z,102589.66
2022-10-18T05:58:29.250Z,102596.94
2022-10-18T06:00:59.774Z,102608.34
2022-10-18T06:03:27.625Z,102600.53
2022-10-18T06:06:00.135Z,102607.09
2022-10-18T06:08:26.782Z,102606.25
2022-10-18T06:10:53.339Z,102609.66
2022-10-18T06:13:19.810Z,102604.22
2022-10-18T06:15:46.304Z,102605.47
2022-10-18T06:18:12.852Z,102602.09
2022-10-18T06:20:39.382Z,102614.84
2022-10-18T06:23:05.948Z,102619.03
2022-10-18T06:25:32.441Z,102628.66
2022-10-18T06:27:58.926Z,102627.16
2022-10-18T06:30:25.459Z,102627.56
2022-10-18T06:32:51.928Z,102630.38
2022-10-18T06:35:18.374Z,102632.72
2022-10-18T06:37:44.852Z,102628.75
2022-10-18T06:40:11.492Z,102630.63
2022-10-18T06:42:37.950Z,102641.88
2022-10-18T06:45:05.669Z,102653.47
2022-10-18T06:47:32.203Z,102660.22
2022-10-18T06:49:59.569Z,102671.22
2022-10-18T06:52:26.276Z,102669.97
2022-10-18T06:54:53.707Z,102659.81
2022-10-18T06:57:20.880Z,102654.53
2022-10-18T06:59:47.348Z,102659.44
2022-10-18T07:02:17.336Z,102679.28
2022-10-18T07:04:43.932Z,102683.13
2022-10-18T07:07:10.455Z,102678.22
2022-10-18T07:09:36.923Z,102671.94
2022-10-18T07:12:03.527Z,102678.88
2022-10-18T07:14:29.987Z,102683.97
2022-10-18T07:16:59.245Z,102698.38
2022-10-18T07:19:25.776Z,102697.28
2022-10-18T07:21:52.261Z,102702.97
2022-10-18T07:24:18.743Z,102706.31
2022-10-18T07:26:45.289Z,102702.53
2022-10-18T07:29:12.031Z,102701.91
2022-10-18T07:31:39.302Z,102708.22
2022-10-18T07:34:07.025Z,102716.66
2022-10-18T07:36:33.881Z,102721.13
2022-10-18T07:39:00.421Z,102720.72
2022-10-18T07:41:27.019Z,102730.03
2022-10-18T07:43:53.775Z,102737.81
2022-10-18T07:46:22.316Z,102745.47
2022-10-18T07:48:49.499Z,102741.03
2022-10-18T07:51:16.859Z,102746.97
2022-10-18T07:53:43.434Z,102746.75
2022-10-18T07:56:16.062Z,102755.66
2022-10-18T07:58:43.848Z,102761.31
2022-10-18T08:01:10.478Z,102765.16
2022-10-18T08:03:37.863Z,102774.84
2022-10-18T08:06:09.030Z,102774.66
2022-10-18T08:08:37.222Z,102768.72
2022-10-18T08:11:12.150Z,102776.09
2022-10-18T08:13:38.764Z,102780.97
2022-10-18T08:16:07.670Z,102781.56
2022-10-18T08:18:35.205Z,102787.31
2022-10-18T08:21:04.261Z,102790.91
2022-10-18T08:23:30.789Z,102779.00
2022-10-18T08:26:00.473Z,102783.06
2022-10-18T08:28:27.020Z,102786.41
2022-10-18T08:30:53.540Z,102771.41
2022-10-18T08:33:20.048Z,102784.47
2022-10-18T08:35:59.818Z,102798.47
2022-10-18T08:38:28.603Z,102800.13
2022-10-18T08:40:55.088Z,102800.38
2022-10-18T08:43:21.930Z,102800.56
2022-10-18T08:45:50.829Z,102807.16
2022-10-18T08:48:24.268Z,102798.63
2022-10-18T08:50:53.114Z,102799.25
2022-10-18T08:53:27.570Z,102801.78
2022-10-18T08:56:26.882Z,102802.59
2022-10-18T08:58:53.355Z,102790.56
2022-10-18T09:01:36.127Z,102795.41
2022-10-18T09:04:17.454Z,102805.13
2022-10-18T09:07:20.609Z,102818.22
2022-10-18T09:10:22.089Z,102805.69
2022-10-18T09:13:23.862Z,102813.06
2022-10-18T09:16:05.780Z,102817.34
2022-10-18T09:18:57.317Z,102823.00
2022-10-18T09:21:52.796Z,102813.31
2022-10-18T09:24:27.199Z,102816.06
2022-10-18T09:27:15.156Z,102814.53
2022-10-18T09:29:47.619Z,102803.75
2022-10-18T09:32:26.470Z,102807.53
2022-10-18T09:35:07.912Z,102807.72
2022-10-18T09:37:34.936Z,102803.94
2022-10-18T09:40:19.377Z,102815.09
2022-10-18T09:43:17.011Z,102812.97
2022-10-18T09:45:45.652Z,102820.16
2022-10-18T09:48:52.833Z,102819.72
2022-10-18T09:51:23.487Z,102811.31
2022-10-18T09:54:35.217Z,102811.69
2022-10-18T09:57:09.998Z,102812.97
2022-10-18T09:59:50.572Z,102816.75
2022-10-18T10:02:22.281Z,102810.84
2022-10-18T10:04:49.405Z,102817.47
2022-10-18T10:07:21.843Z,102814.13
2022-10-18T10:09:56.634Z,102818.72
2022-10-18T10:12:37.430Z,102817.06
2022-10-18T10:15:20.759Z,102813.38
2022-10-18T10:18:21.171Z,102816.91
2022-10-18T10:20:53.459Z,102821.53
2022-10-18T10:23:24.988Z,102821.97
2022-10-18T10:25:54.315Z,102827.06
2022-10-18T10:28:24.050Z,102844.81
2022-10-18T10:30:50.568Z,102828.63
2022-10-18T10:33:34.443Z,102831.69
2022-10-18T10:36:03.699Z,102830.69
2022-10-18T10:38:31.433Z,102837.59
2022-10-18T10:40:58.966Z,102840.91
2022-10-18T10:43:37.593Z,102861.03
2022-10-18T10:46:07.801Z,102859.31
2022-10-18T10:48:41.863Z,102859.06
2022-10-18T10:51:12.327Z,102855.41
2022-10-18T10:53:57.194Z,102856.25
2022-10-18T10:56:30.386Z,102852.56
2022-10-18T10:59:13.269Z,102850.59
2022-10-18T11:01:40.263Z,102855.06
2022-10-18T11:04:32.162Z,102852.22
2022-10-18T11:07:01.234Z,102855.53
2022-10-18T11:09:36.065Z,102853.78
2022-10-18T11:12:17.868Z,102856.66
2022-10-18T11:14:46.852Z,102862.56
2022-10-18T11:17:29.529Z,102869.16
2022-10-18T11:20:11.769Z,102868.03
2022-10-18T11:22:49.786Z,102853.59
2022-10-18T11:25:17.882Z,102861.94
2022-10-18T11:27:58.037Z,102857.41
2022-10-18T11:30:35.339Z,102857.16
2022-10-18T11:33:33.611Z,102861.31
2022-10-18T11:36:15.440Z,102858.22
2022-10-18T11:39:09.649Z,102852.69
2022-10-18T11:41:40.540Z,102856.22
2022-10-18T11:44:30.066Z,102846.97
2022-10-18T11:47:19.413Z,102846.75
2022-10-18T11:49:48.847Z,102850.03
2022-10-18T11:52:37.077Z,102851.00
2022-10-18T11:55:21.543Z,102850.28
2022-10-18T11:58:02.280Z,102852.88
2022-10-18T12:00:55.713Z,102840.28
2022-10-18T12:03:22.139Z,102841.50
2022-10-18T12:05:50.922Z,102852.53
2022-10-18T12:08:20.162Z,102836.06
2022-10-18T12:11:04.689Z,102839.22
2022-10-18T12:13:49.196Z,102839.69
2022-10-18T12:16:28.899Z,102843.44
2022-10-18T12:19:16.149Z,102839.97
2022-10-18T12:21:43.059Z,102831.19
2022-10-18T12:24:16.081Z,102832.03
2022-10-18T12:26:42.721Z,102834.19
2022-10-18T12:29:22.740Z,102832.63
2022-10-18T12:31:53.462Z,102834.66
2022-10-18T12:34:22.830Z,102828.91
2022-10-18T12:37:04.665Z,102836.72
2022-10-18T12:39:51.836Z,102825.03
2022-10-18T12:42:31.970Z,102824.56
2022-10-18T12:45:05.427Z,102824.66
2022-10-18T12:47:32.927Z,102820.94
2022-10-18T12:50:03.523Z,102819.97
2022-10-18T12:52:34.571Z,102818.41
2022-10-18T12:55:05.344Z,102812.88
2022-10-18T12:57:54.733Z,102811.69
2022-10-18T13:00:30.290Z,102814.31
2022-10-18T13:03:08.894Z,102819.38
2022-10-18T13:05:56.034Z,102814.31
2022-10-18T13:08:29.988Z,102808.75
2022-10-18T13:11:08.853Z,102804.78
2022-10-18T13:16:49.032Z,102802.50
2022-10-18T13:19:27.289Z,102794.66
2022-10-18T13:22:10.263Z,102806.44
2022-10-18T13:24:42.300Z,102799.44
2022-10-18T13:27:35.501Z,102788.19
2022-10-18T13:30:41.363Z,102793.72
2022-10-18T13:33:13.565Z,102798.19
2022-10-18T13:36:12.856Z,102793.16
2022-10-18T13:38:39.302Z,102792.03
2022-10-18T13:41:06.792Z,102797.78
2022-10-18T13:43:56.281Z,102805.59
2022-10-18T13:46:25.439Z,102798.03
2022-10-18T13:48:59.544Z,102805.50
2022-10-18T13:51:38.033Z,102811.31
2022-10-18T13:54:38.480Z,102810.06
2022-10-18T13:57:27.629Z,102808.38
2022-10-18T14:00:31.575Z,102803.78
2022-10-18T14:03:55.497Z,102815.53
2022-10-18T14:06:23.687Z,102800.00
2022-10-18T14:09:09.515Z,102808.25
2022-10-18T14:11:51.176Z,102800.03
2022-10-18T14:14:20.528Z,102808.88
2022-10-18T14:16:54.538Z,102809.44
2022-10-18T14:19:31.567Z,102807.75
2022-10-18T14:22:19.810Z,102812.88
2022-10-18T14:24:57.301Z,102819.41
2022-10-18T14:27:35.077Z,102813.59
2022-10-18T14:30:17.539Z,102818.38
2022-10-18T14:32:54.335Z,102800.56
2022-10-18T14:35:39.623Z,102803.19
2022-10-18T14:38:13.527Z,102811.59
2022-10-18T14:40:40.477Z,102817.47
2022-10-18T14:43:15.541Z,102808.16
2022-10-18T14:45:42.671Z,102805.19
2022-10-18T14:48:17.521Z,102810.50
2022-10-18T14:50:48.224Z,102815.22
2022-10-18T14:53:21.919Z,102810.75
2022-10-18T14:55:56.343Z,102804.13
2022-10-18T14:58:23.266Z,102798.75
2022-10-18T15:00:49.896Z,102795.97
2022-10-18T15:03:17.836Z,102809.00
2022-10-18T15:06:00.457Z,102803.44
2022-10-18T15:08:32.571Z,102803.34
2022-10-18T15:10:59.090Z,102798.88
2022-10-18T15:13:26.410Z,102802.78
2022-10-18T15:15:54.009Z,102809.88
2022-10-18T15:18:24.036Z,102813.38
2022-10-18T15:21:24.155Z,102799.09
2022-10-18T15:23:51.866Z,102800.69
2022-10-18T15:26:29.393Z,102804.88
2022-10-18T15:29:00.485Z,102815.97
2022-10-18T15:31:32.952Z,102803.63
2022-10-18T15:34:15.187Z,102806.63
2022-10-18T15:39:31.640Z,102815.66
2022-10-18T15:42:00.925Z,102807.88
2022-10-18T15:44:46.733Z,102810.28
2022-10-18T15:47:13.210Z,102808.88
2022-10-18T15:49:45.411Z,102816.72
2022-10-18T15:52:35.238Z,102808.72
2022-10-18T15:55:29.559Z,102816.44
2022-10-18T15:58:17.814Z,102810.69
2022-10-18T16:00:46.298Z,102802.44
2022-10-18T16:03:13.549Z,102807.78
2022-10-18T16:05:40.632Z,102795.50
2022-10-18T16:08:18.422Z,102806.22
2022-10-18T16:10:44.867Z,102803.22
2022-10-18T16:13:11.310Z,102810.84
2022-10-18T16:15:38.152Z,102817.69
2022-10-18T16:18:04.621Z,102809.25
2022-10-18T16:20:31.313Z,102813.72
2022-10-18T16:22:57.759Z,102814.94
2022-10-18T16:25:24.309Z,102822.53
2022-10-18T16:27:50.790Z,102831.19
2022-10-18T16:30:21.010Z,102817.94
2022-10-18T16:32:48.800Z,102820.47
2022-10-18T16:35:15.453Z,102832.25
2022-10-18T16:37:41.977Z,102825.66
2022-10-18T16:40:23.163Z,102840.91
2022-10-18T16:42:49.672Z,102835.72
2022-10-18T16:45:16.438Z,102839.81
2022-10-18T16:47:42.947Z,102834.50
2022-10-18T16:50:19.688Z,102840.63
2022-10-18T16:52:46.189Z,102842.25
2022-10-18T16:55:20.995Z,102845.78
2022-10-18T16:57:48.353Z,102850.19
2022-10-18T17:00:21.201Z,102864.69
2022-10-18T17:02:49.062Z,102852.53
2022-10-18T17:05:16.894Z,102856.34
2022-10-18T17:07:43.880Z,102862.78
2022-10-18T17:10:16.805Z,102870.56
2022-10-18T17:12:43.522Z,102862.63
2022-10-18T17:15:11.084Z,102872.66
2022-10-18T17:17:37.771Z,102862.19
2022-10-18T17:20:06.069Z,102863.09
2022-10-18T17:22:32.760Z,102868.06
2022-10-18T17:24:59.239Z,102875.28
2022-10-18T17:27:25.774Z,102870.63
2022-10-18T17:29:52.236Z,102866.25
2022-10-18T17:32:18.712Z,102871.13
2022-10-18T17:34:45.233Z,102873.75
2022-10-18T17:37:11.815Z,102875.03
2022-10-18T17:39:38.321Z,102887.22
2022-10-18T17:42:04.799Z,102885.41
2022-10-18T17:44:31.361Z,102888.75
2022-10-18T17:46:57.824Z,102884.81
2022-10-18T17:49:24.323Z,102894.38
2022-10-18T17:51:50.766Z,102889.56
2022-10-18T17:54:17.217Z,102894.50
2022-10-18T17:56:45.072Z,102898.78
2022-10-18T17:59:11.533Z,102905.97
2022-10-18T18:01:38.245Z,102900.97
2022-10-18T18:04:04.922Z,102908.31
2022-10-18T18:06:34.952Z,102912.97
2022-10-18T18:09:06.758Z,102910.03
2022-10-18T18:11:33.817Z,102897.31
2022-10-18T18:14:00.412Z,102899.47
2022-10-18T18:16:29.539Z,102908.84
2022-10-18T18:18:57.846Z,102908.00
2022-10-18T18:21:25.613Z,102915.41
2022-10-18T18:23:52.318Z,102913.97
2022-10-18T18:26:19.272Z,102909.97
2022-10-18T18:28:45.959Z,102913.78
2022-10-18T18:31:18.379Z,102920.34
2022-10-18T18:33:45.063Z,102918.31
2022-10-18T18:36:11.987Z,102914.09
2022-10-18T18:38:40.082Z,102920.06
2022-10-18T18:41:12.792Z,102910.56
2022-10-18T18:43:43.877Z,102918.81
2022-10-18T18:46:12.524Z,102911.19
2022-10-18T18:48:40.738Z,102903.41
2022-10-18T18:51:11.150Z,102903.25
2022-10-18T18:53:39.948Z,102914.63
2022-10-18T18:56:08.726Z,102912.72
2022-10-18T18:58:36.286Z,102905.78
2022-10-18T19:01:14.741Z,102911.94
2022-10-18T19:03:42.729Z,102910.03
2022-10-18T19:06:13.673Z,102916.78
2022-10-18T19:08:40.352Z,102906.41
2022-10-18T19:11:09.332Z,102907.13
2022-10-18T19:13:36.362Z,102915.38
2022-10-18T19:16:18.142Z,102909.22
2022-10-18T19:18:53.381Z,102913.66
2022-10-18T19:21:20.512Z,102906.47
2022-10-18T19:23:47.085Z,102906.91
2022-10-18T19:26:23.846Z,102917.09
2022-10-18T19:28:50.322Z,102902.94
2022-10-18T19:31:16.928Z,102908.00
2022-10-18T19:33:48.761Z,102899.16
2022-10-18T19:36:22.375Z,102898.75
2022-10-18T19:38:48.834Z,102898.78
2022-10-18T19:41:15.339Z,102899.66
2022-10-18T19:43:41.832Z,102912.97
2022-10-18T19:46:08.352Z,102912.56
2022-10-18T19:48:34.817Z,102917.63
2022-10-18T19:51:07.917Z,102917.41
2022-10-18T19:53:36.008Z,102923.13
2022-10-18T19:56:04.001Z,102936.69
2022-10-18T19:58:30.539Z,102925.06
2022-10-18T20:00:57.635Z,102929.91
2022-10-18T20:03:24.749Z,102921.88
2022-10-18T20:05:58.090Z,102922.53
2022-10-18T20:08:25.544Z,102927.41
2022-10-18T20:10:52.908Z,102929.72
2022-10-18T20:13:19.496Z,102928.44
2022-10-18T20:15:50.279Z,102932.25
2022-10-18T20:18:18.505Z,102932.50
2022-10-18T20:20:48.121Z,102941.59
2022-10-18T20:23:16.740Z,102933.97
2022-10-18T20:25:43.804Z,102932.72
2022-10-18T20:28:10.284Z,102933.34
2022-10-18T20:30:36.768Z,102929.53
2022-10-18T20:33:03.307Z,102931.03
2022-10-18T20:35:29.776Z,102930.59
2022-10-18T20:37:56.273Z,102929.13
2022-10-18T20:40:22.728Z,102919.84
2022-10-18T20:42:51.460Z,102931.88
2022-10-18T20:45:17.980Z,102920.84
2022-10-18T20:47:44.429Z,102920.44
2022-10-18T20:50:11.008Z,102917.88
2022-10-18T20:52:37.512Z,102928.03
2022-10-18T20:55:04.239Z,102926.34
2022-10-18T20:57:34.162Z,102920.84
2022-10-18T21:00:03.879Z,102918.31
2022-10-18T21:02:30.427Z,102922.34
2022-10-18T21:04:56.942Z,102914.94
2022-10-18T21:07:23.422Z,102916.63
2022-10-18T21:09:49.955Z,102913.66
2022-10-18T21:12:16.431Z,102911.97
2022-10-18T21:14:42.918Z,102907.31
2022-10-18T21:17:09.438Z,102905.00
2022-10-18T21:19:35.957Z,102906.03
2022-10-18T21:22:02.434Z,102900.13
2022-10-18T21:24:29.930Z,102897.81
2022-10-18T21:26:56.807Z,102892.53
2022-10-18T21:29:26.874Z,102903.09
2022-10-18T21:31:55.537Z,102904.78
2022-10-18T21:34:22.154Z,102904.16
2022-10-18T21:36:48.726Z,102897.59
2022-10-18T21:39:19.890Z,102912.56
2022-10-18T21:41:46.969Z,102907.28
2022-10-18T21:44:14.027Z,102914.00
2022-10-18T21:46:42.904Z,102903.50
2022-10-18T21:49:10.315Z,102907.28
2022-10-18T21:51:37.221Z,102899.25
2022-10-18T21:54:03.867Z,102911.25
2022-10-18T21:56:32.904Z,102900.88
2022-10-18T21:58:59.979Z,102898.16
2022-10-18T22:01:32.548Z,102909.53
2022-10-18T22:04:00.954Z,102896.88
2022-10-18T22:06:29.980Z,102895.34
2022-10-18T22:09:01.957Z,102902.78
2022-10-18T22:11:32.527Z,102894.91
2022-10-18T22:13:59.379Z,102895.78
2022-10-18T22:16:26.698Z,102899.09
2022-10-18T22:18:57.808Z,102902.28
2022-10-18T22:21:24.302Z,102899.53
2022-10-18T22:23:53.140Z,102901.19
2022-10-18T22:26:25.880Z,102897.38
2022-10-18T22:28:57.709Z,102901.34
2022-10-18T22:31:27.624Z,102897.97
2022-10-18T22:33:59.843Z,102895.22
2022-10-18T22:36:27.255Z,102901.94
2022-10-18T22:38:54.139Z,102898.13
2022-10-18T22:41:20.658Z,102899.78
2022-10-18T22:43:49.922Z,102904.97
2022-10-18T22:46:16.939Z,102903.91
2022-10-18T22:48:43.964Z,102897.13
2022-10-18T22:51:11.309Z,102894.78
2022-10-18T22:53:39.500Z,102910.56
2022-10-18T22:56:07.083Z,102909.53
2022-10-18T22:58:33.746Z,102901.47
2022-10-18T23:01:02.171Z,102905.66
2022-10-18T23:03:28.823Z,102890.25
2022-10-18T23:05:55.657Z,102894.84
2022-10-18T23:08:22.173Z,102900.31
2022-10-18T23:10:53.713Z,102906.66
2022-10-18T23:13:20.187Z,102906.88
2022-10-18T23:15:46.699Z,102899.00
2022-10-18T23:18:13.181Z,102897.69
2022-10-18T23:20:39.673Z,102905.06
2022-10-18T23:23:06.163Z,102902.06
2022-10-18T23:25:36.431Z,102897.56
2022-10-18T23:28:03.679Z,102895.06
2022-10-18T23:30:30.726Z,102892.94
2022-10-18T23:32:57.220Z,102892.09
2022-10-18T23:35:23.738Z,102902.59
2022-10-18T23:37:51.328Z,102906.78
2022-10-18T23:40:17.847Z,102904.44
2022-10-18T23:42:44.302Z,102896.22
2022-10-18T23:45:10.971Z,102893.22
2022-10-18T23:47:37.520Z,102906.69
2022-10-18T23:50:04.828Z,102890.66
2022-10-18T23:52:31.306Z,102899.50
2022-10-18T23:54:57.775Z,102894.44
2022-10-18T23:57:24.229Z,102896.91
2022-10-18T23:59:50.692Z,102902.94
